createdAt,value
2022-08-05T04:14:49.273Z,81.73
2022-08-05T04:17:56.189Z,81.73
2022-08-05T04:21:00.426Z,83.00
2022-08-05T04:24:08.897Z,83.03
2022-08-05T04:27:13.582Z,83.09
2022-08-05T04:30:16.545Z,83.22
2022-08-05T04:33:36.394Z,82.67
2022-08-05T04:36:46.214Z,83.14
2022-08-05T04:39:53.137Z,81.72
2022-08-05T04:42:58.563Z,81.83
2022-08-05T04:46:01.258Z,81.13
2022-08-05T04:49:04.364Z,80.24
2022-08-05T04:52:07.774Z,79.20
2022-08-05T04:55:14.195Z,76.73
2022-08-05T04:58:21.614Z,75.42
2022-08-05T05:02:05.812Z,74.78
2022-08-05T05:04:49.932Z,73.40
2022-08-05T05:11:53.281Z,67.05
2022-08-05T05:14:56.330Z,64.45
2022-08-05T05:17:58.992Z,63.22
2022-08-05T05:21:03.909Z,64.43
2022-08-05T05:24:08.910Z,64.73
2022-08-05T05:27:12.073Z,64.27
2022-08-05T05:30:30.790Z,64.03
2022-08-05T05:33:58.570Z,64.11
2022-08-05T05:36:57.200Z,63.27
2022-08-05T05:40:00.127Z,59.94
2022-08-05T05:43:05.683Z,57.06
2022-08-05T05:46:17.709Z,56.27
2022-08-05T05:49:22.677Z,53.28
2022-08-05T05:52:28.527Z,51.09
2022-08-05T05:55:52.045Z,50.25
2022-08-05T05:59:18.960Z,52.78
2022-08-05T06:02:32.447Z,53.70
2022-08-05T06:05:40.403Z,52.17
2022-08-05T10:58:36.006Z,15.70
2022-08-05T13:21:15.744Z,20.10
2022-08-05T13:24:36.306Z,20.83
2022-08-05T14:28:59.147Z,20.63
2022-08-05T14:32:17.158Z,20.37
2022-08-05T14:35:37.477Z,20.48
2022-08-05T14:39:23.448Z,20.38
2022-08-05T14:42:28.161Z,20.83
2022-08-05T14:45:31.633Z,20.56
2022-08-05T14:48:34.675Z,20.80
2022-08-05T14:51:42.737Z,21.00
2022-08-05T14:54:52.951Z,21.30
2022-08-05T14:57:56.907Z,21.28
2022-08-05T15:01:00.427Z,21.33
2022-08-05T15:04:06.876Z,21.41
2022-08-05T15:07:09.778Z,21.47
2022-08-05T15:10:12.859Z,20.78
2022-08-05T15:13:17.500Z,20.86
